Aeroporto :
LOGIN :

Iscrizione | Disclaimer

   EN    FR    IT 

 










Sommario :    VFR   VFR Marginale   IFR   IFR Intensivo   IFR Molto Intensivo
Visibilità : 
Base nubi : 
>= 8 km
>= 3000ft
5 / 8 km
1000 / 3000 ft
1500m / 5 km
500 / 1000 ft
800 / 1500m
200 / 500 ft
< 800m
< 200 ft
Simboli :   Temporali  Nebbia  Neve Forte  Precipitazioni Forti  Vento > 20 kt
SIGMETs :   Varie  Temporali  Ghiacco  Turbolenza  Onda orograficha  Ceneri Vulcaniche






- Altitudine del aeroporto : 1115 ft
- Codice IATA : GRZ


LOWG - Graz

ULTIMO METAR :
  • 042020Z AUTO 19009KT 160V220 9999 NSC 17/11 Q0998

METARs OBSOLETI :
  • 041950Z AUTO 19011KT 9999 NSC 17/11 Q0998
  • 041920Z AUTO 18010KT 9999 NSC 17/11 Q0998
  • 041850Z AUTO 19008KT 150V230 9999 NSC 18/11 Q0998
  • 041820Z AUTO 19011KT 9999 NSC 18/11 Q0998
  • 041750Z AUTO 18013KT 9999 NSC 18/10 Q0998

TAF TAF LOWG
Valido dal 04 a 18 ore il 05 a 18 ore UTC


041715Z 0418/0518 20010KT 9999 SCT050 TX19/0418Z TN13/0505Z
BECMG 0422/0501 VRB06KT -RA
TEMPO 0500/0508 35007KT 4000 RA BKN014
BECMG 0508/0510 NSW
TEMPO 0508/0513 -RA



MetMap, La meteo Aeronautica in un colpo d'occhio ! - Copyright ORBIFLY Dicembre 2007 - Disclaimer

ORBIFLY MET'MAP TEAM :

Programmazione e sviluppo : Alexandra Zaïnal
Concezione : Baudouin d'Aumeries
Aiuto per la programmazione : Marc-Olivier Méhu
Supporto tecnico e logistico : Manuel Goepfert
Aiuto per la traduzione : Arnaldo La Scala

Contatto : metmap@orbifly.com




FONTI E CREDITI :

   NOAA